• Join FlightAware (Why Join?)
  • Login
  • US Flag 
02:56PM EDT


 

Airport Tracker/Info


-or-


 

Live Flight TrackerFlight Track Log ✈ UAL1006 ✈ 20-Jul-2013 ✈ SKBO / BOG - KIAH

Flight Track Log - Related Links

Times and Time Zones

All times are in EDT time to prevent confusion due to time zone crossing. See the UAL1006 flight status page for this flight to view local times or setup timezone preferences in your user account.

Time Position Orientation Groundspeed Altitude Reporting Facility
EDT Latitude Longitude Course Direction KTS MPH feet Rate Location/Type
02:04AM 7.3541 -76.3356 321° Northwest  Level FlightAware Approximate
02:05AM 7.4492 -76.4140 321° Northwest  Level FlightAware Approximate
02:06AM 7.5443 -76.4925 321° Northwest  Level FlightAware Approximate
02:07AM 7.6392 -76.5713 321° Northwest  Level FlightAware Approximate
02:08AM 7.7340 -76.6502 320° Northwest  Level FlightAware Approximate
02:09AM 7.8288 -76.7291 320° Northwest  Level FlightAware Approximate
02:10AM 7.9236 -76.8081 320° Northwest  Level FlightAware Approximate
02:11AM 8.0183 -76.8871 320° Northwest  Level FlightAware Approximate
02:12AM 8.1131 -76.9661 320° Northwest  Level FlightAware Approximate
02:13AM 8.2078 -77.0452 320° Northwest  Level FlightAware Approximate
02:14AM 8.3026 -77.1243 320° Northwest  Level FlightAware Approximate
02:15AM 8.4013 -77.2068 320° Northwest  Level FlightAware Approximate
02:16AM 8.5000 -77.2894 320° Northwest  Level FlightAware Approximate
02:17AM 8.5987 -77.3719 320° Northwest  Level FlightAware Approximate
02:18AM 8.6974 -77.4546 320° Northwest  Level FlightAware Approximate
02:19AM 8.7961 -77.5372 320° Northwest  Level FlightAware Approximate
02:20AM 8.8947 -77.6200 320° Northwest  Level FlightAware Approximate
02:21AM 8.9933 -77.7027 320° Northwest  Level FlightAware Approximate
02:22AM 9.0920 -77.7856 320° Northwest  Level FlightAware Approximate
02:23AM 9.1905 -77.8684 320° Northwest  Level FlightAware Approximate
02:24AM 9.2891 -77.9513 320° Northwest  Level FlightAware Approximate
02:25AM 9.3877 -78.0343 320° Northwest  Level FlightAware Approximate
02:26AM 9.4862 -78.1173 320° Northwest  Level FlightAware Approximate
02:27AM 9.5847 -78.2003 320° Northwest  Level FlightAware Approximate
02:28AM 9.6832 -78.2834 320° Northwest  Level FlightAware Approximate
02:29AM 9.7817 -78.3665 320° Northwest  Level FlightAware Approximate
02:30AM 9.8801 -78.4497 320° Northwest  Level FlightAware Approximate
02:31AM 9.9785 -78.5330 320° Northwest  Level FlightAware Approximate
02:32AM 10.0770 -78.6162 320° Northwest  Level FlightAware Approximate
02:33AM 10.1753 -78.6996 320° Northwest  Level FlightAware Approximate
02:34AM 10.2737 -78.7830 320° Northwest  Level FlightAware Approximate
02:35AM 10.3721 -78.8664 320° Northwest  Level FlightAware Approximate
02:36AM 10.4704 -78.9499 320° Northwest  Level FlightAware Approximate
02:37AM 10.5687 -79.0335 320° Northwest  Level FlightAware Approximate
02:38AM 10.6670 -79.1171 320° Northwest  Level FlightAware Approximate
02:39AM 10.7652 -79.2007 320° Northwest  Level FlightAware Approximate
02:40AM 10.8635 -79.2844 320° Northwest  Level FlightAware Approximate
02:41AM 10.9617 -79.3682 320° Northwest  Level FlightAware Approximate
02:42AM 11.0599 -79.4520 320° Northwest  Level FlightAware Approximate
02:43AM 11.1581 -79.5359 320° Northwest  Level FlightAware Approximate
02:44AM 11.2562 -79.6199 320° Northwest  Level FlightAware Approximate
02:45AM 11.3543 -79.7038 320° Northwest  Level FlightAware Approximate
02:46AM 11.4524 -79.7879 320° Northwest  Level FlightAware Approximate
02:47AM 11.5505 -79.8720 320° Northwest  Level FlightAware Approximate
02:48AM 11.6486 -79.9562 320° Northwest  Level FlightAware Approximate
02:49AM 11.7466 -80.0404 320° Northwest  Level FlightAware Approximate
02:50AM 11.8446 -80.1247 320° Northwest  Level FlightAware Approximate
02:51AM 11.9426 -80.2090 320° Northwest  Level FlightAware Approximate
02:52AM 12.0405 -80.2934 320° Northwest  Level FlightAware Approximate
02:53AM 12.1384 -80.3779 320° Northwest  Level FlightAware Approximate
02:54AM 12.2364 -80.4624 320° Northwest  Level FlightAware Approximate
02:55AM 12.3342 -80.5470 320° Northwest  Level FlightAware Approximate
02:56AM 12.4321 -80.6317 320° Northwest  Level FlightAware Approximate
02:57AM 12.5299 -80.7164 320° Northwest  Level FlightAware Approximate
02:58AM 12.6277 -80.8012 320° Northwest  Level FlightAware Approximate
02:59AM 12.7255 -80.8861 320° Northwest  Level FlightAware Approximate
03:00AM 12.8232 -80.9710 320° Northwest  Level FlightAware Approximate
03:01AM 12.9209 -81.0560 320° Northwest  Level FlightAware Approximate
03:02AM 13.0186 -81.1410 320° Northwest  Level FlightAware Approximate
03:03AM 13.1163 -81.2261 320° Northwest  Level FlightAware Approximate
03:04AM 13.2139 -81.3113 320° Northwest  Level FlightAware Approximate
03:05AM 13.3115 -81.3966 320° Northwest  Level FlightAware Approximate
03:06AM 13.4091 -81.4819 320° Northwest  Level FlightAware Approximate
03:07AM 13.5066 -81.5673 320° Northwest  Level FlightAware Approximate
03:08AM 13.6042 -81.6527 320° Northwest  Level FlightAware Approximate
03:09AM 13.7017 -81.7383 320° Northwest  Level FlightAware Approximate
03:10AM 13.7991 -81.8239 320° Northwest  Level FlightAware Approximate
03:11AM 13.8966 -81.9095 320° Northwest  Level FlightAware Approximate
03:12AM 13.9939 -81.9953 319° Northwest  Level FlightAware Approximate
03:13AM 14.0913 -82.0811 319° Northwest  Level FlightAware Approximate
03:14AM 14.1887 -82.1670 319° Northwest  Level FlightAware Approximate
03:15AM 14.2860 -82.2530 319° Northwest  Level FlightAware Approximate
03:16AM 14.3833 -82.3390 319° Northwest  Level FlightAware Approximate
03:17AM 14.4804 -82.4252 319° Northwest  Level FlightAware Approximate
03:18AM 14.5774 -82.5117 319° Northwest  Level FlightAware Approximate
03:19AM 14.6744 -82.5982 319° Northwest  Level FlightAware Approximate
03:20AM 14.7713 -82.6848 319° Northwest  Level FlightAware Approximate
03:21AM 14.8683 -82.7714 319° Northwest  Level FlightAware Approximate
03:22AM 14.9651 -82.8582 319° Northwest  Level FlightAware Approximate
03:23AM 15.0620 -82.9450 319° Northwest  Level FlightAware Approximate
03:24AM 15.1588 -83.0319 319° Northwest  Level FlightAware Approximate
03:25AM 15.2556 -83.1189 319° Northwest  Level FlightAware Approximate
03:26AM 15.3523 -83.2060 319° Northwest  Level FlightAware Approximate
03:27AM 15.4490 -83.2931 319° Northwest  Level FlightAware Approximate
03:28AM 15.5457 -83.3803 319° Northwest  Level FlightAware Approximate
03:29AM 15.6424 -83.4676 319° Northwest  Level FlightAware Approximate
03:30AM 15.7390 -83.5550 319° Northwest  Level FlightAware Approximate
03:31AM 15.8356 -83.6425 319° Northwest  Level FlightAware Approximate
03:32AM 15.9321 -83.7301 319° Northwest  Level FlightAware Approximate
03:33AM 16.0286 -83.8177 319° Northwest  Level FlightAware Approximate
03:34AM 16.1251 -83.9054 319° Northwest  Level FlightAware Approximate
03:35AM 16.2215 -83.9932 319° Northwest  Level FlightAware Approximate
03:36AM 16.3179 -84.0811 319° Northwest  Level FlightAware Approximate
03:37AM 16.4143 -84.1691 319° Northwest  Level FlightAware Approximate
03:38AM 16.5106 -84.2572 319° Northwest  Level FlightAware Approximate
03:39AM 16.6069 -84.3454 319° Northwest  Level FlightAware Approximate
03:40AM 16.7031 -84.4336 319° Northwest  Level FlightAware Approximate
03:41AM 16.7993 -84.5219 319° Northwest  Level FlightAware Approximate
03:42AM 16.8944 -84.6094 319° Northwest  Level FlightAware Approximate
03:43AM 16.9895 -84.6969 319° Northwest  Level FlightAware Approximate
03:44AM 17.0844 -84.7844 319° Northwest  Level FlightAware Approximate
03:45AM 17.1794 -84.8721 319° Northwest  Level FlightAware Approximate
03:46AM 17.2743 -84.9599 319° Northwest  Level FlightAware Approximate
03:47AM 17.3692 -85.0478 319° Northwest  Level FlightAware Approximate
03:48AM 17.4641 -85.1357 319° Northwest  Level FlightAware Approximate
03:49AM 17.5591 -85.2235 319° Northwest  Level FlightAware Approximate
03:50AM 17.6546 -85.3107 319° Northwest  Level FlightAware Approximate
03:51AM 17.7501 -85.3980 319° Northwest  Level FlightAware Approximate
03:52AM 17.8456 -85.4855 319° Northwest  Level FlightAware Approximate
03:53AM 17.9410 -85.5730 319° Northwest  Level FlightAware Approximate
03:54AM 18.0363 -85.6606 319° Northwest  Level FlightAware Approximate
03:55AM 18.1317 -85.7483 319° Northwest  Level FlightAware Approximate
03:56AM 18.2269 -85.8361 319° Northwest  Level FlightAware Approximate
03:57AM 18.3222 -85.9240 319° Northwest  Level FlightAware Approximate
03:58AM 18.4174 -86.0119 319° Northwest  Level FlightAware Approximate
03:59AM 18.5126 -86.1000 319° Northwest  Level FlightAware Approximate
04:00AM 18.6077 -86.1882 319° Northwest  Level FlightAware Approximate
04:01AM 18.7024 -86.2762 319° Northwest  Level FlightAware Approximate
04:02AM 18.7971 -86.3642 319° Northwest  Level FlightAware Approximate
04:03AM 18.8918 -86.4523 319° Northwest  Level FlightAware Approximate
04:04AM 18.9864 -86.5406 319° Northwest  Level FlightAware Approximate
04:05AM 19.0800 -86.6300 317° Northwest  Level FlightAware Approximate
04:06AM 19.1717 -86.7217 317° Northwest  Level FlightAware Approximate
04:07AM 19.2650 -86.8117 318° Northwest  Level FlightAware Approximate
04:08AM 19.3589 -86.9010 318° Northwest  Level FlightAware Approximate
04:09AM 19.4528 -86.9903 318° Northwest  Level FlightAware Approximate
04:10AM 19.5466 -87.0798 318° Northwest  Level FlightAware Approximate
04:11AM 19.6404 -87.1694 318° Northwest  Level FlightAware Approximate
04:12AM 19.7341 -87.2591 318° Northwest  Level FlightAware Approximate
04:13AM 19.8278 -87.3489 318° Northwest  Level FlightAware Approximate
04:14AM 19.9214 -87.4388 318° Northwest  Level FlightAware Approximate
04:15AM 20.0151 -87.5288 318° Northwest  Level FlightAware Approximate
04:16AM 20.1086 -87.6189 318° Northwest  Level FlightAware Approximate
04:17AM 20.2021 -87.7091 318° Northwest  Level FlightAware Approximate
04:18AM 20.2956 -87.7994 318° Northwest  Level FlightAware Approximate
04:19AM 20.3890 -87.8898 318° Northwest  Level FlightAware Approximate
04:20AM 20.4822 -87.9805 318° Northwest  Level FlightAware Approximate
04:21AM 20.5754 -88.0714 318° Northwest  Level FlightAware Approximate
04:22AM 20.6685 -88.1623 318° Northwest  Level FlightAware Approximate
04:23AM 20.7616 -88.2534 318° Northwest  Level FlightAware Approximate
04:24AM 20.8546 -88.3446 318° Northwest  Level FlightAware Approximate
04:25AM 20.9475 -88.4359 317° Northwest  Level FlightAware Approximate
04:26AM 21.0405 -88.5273 317° Northwest  Level FlightAware Approximate
04:27AM 21.1333 -88.6188 317° Northwest  Level FlightAware Approximate
04:28AM 21.2262 -88.7105 317° Northwest  Level FlightAware Approximate
04:29AM 21.3190 -88.8021 319° Northwest  Level FlightAware Approximate
04:30AM 21.4138 -88.8915 319° Northwest  Level FlightAware Approximate
04:31AM 21.5085 -88.9810 319° Northwest  Level FlightAware Approximate
04:32AM 21.6032 -89.0706 319° Northwest  Level FlightAware Approximate
04:33AM 21.6936 -89.1653 315° West  Level FlightAware Approximate
04:34AM 21.7969 -89.2362 327° Northwest  Level Estimated
04:35AM 21.9001 -89.3073 327° Northwest  Level Estimated
04:36AM 22.0032 -89.3784 327° Northwest  Level Estimated
04:37AM 22.1064 -89.4497 327° Northwest  Level Estimated
04:38AM 22.2095 -89.5210 327° Northwest  Level Estimated
04:39AM 22.3125 -89.5925 327° Northwest  Level Estimated
04:40AM 22.4156 -89.6640 327° Northwest  Level Estimated
04:41AM 22.5186 -89.7357 327° Northwest  Level Estimated
04:42AM 22.6216 -89.8075 327° Northwest  Level Estimated
04:43AM 22.7245 -89.8794 327° Northwest  Level Estimated
04:44AM 22.8274 -89.9514 327° Northwest  Level Estimated
04:45AM 22.9303 -90.0235 327° Northwest  Level Estimated
04:46AM 23.0332 -90.0957 327° Northwest  Level Estimated
04:47AM 23.1360 -90.1680 327° Northwest  Level Estimated
04:48AM 23.2388 -90.2404 327° Northwest  Level Estimated
04:49AM 23.3415 -90.3130 327° Northwest  Level Estimated
04:50AM 23.4442 -90.3857 327° Northwest  Level Estimated
04:51AM 23.5469 -90.4584 327° Northwest  Level Estimated
04:52AM 23.6496 -90.5313 327° Northwest  Level Estimated
04:53AM 23.7522 -90.6043 327° Northwest  Level Estimated
04:54AM 23.8548 -90.6774 327° Northwest  Level Estimated
04:55AM 23.9573 -90.7507 327° Northwest  Level Estimated
04:56AM 24.0598 -90.8240 327° Northwest  Level Estimated
04:57AM 24.1623 -90.8975 327° Northwest  Level Estimated
04:58AM 24.2647 -90.9710 327° Northwest  Level Estimated
04:59AM 24.3671 -91.0447 327° Northwest  Level Estimated
05:00AM 24.4695 -91.1186 327° Northwest  Level Estimated
05:01AM 24.5723 -91.1929 327° Northwest  Level Estimated
05:02AM 24.6751 -91.2673 327° Northwest  Level Estimated
05:03AM 24.7779 -91.3418 327° Northwest  Level Estimated
05:04AM 24.8806 -91.4165 327° Northwest  Level Estimated
05:05AM 24.9833 -91.4913 327° Northwest  Level Estimated
05:06AM 25.0859 -91.5662 327° Northwest  Level Estimated
05:07AM 25.1885 -91.6412 327° Northwest  Level Estimated
05:08AM 25.2911 -91.7164 326° Northwest  Level Estimated
05:09AM 25.3962 -91.7936 326° Northwest  Level Estimated
05:10AM 25.5014 -91.8710 326° Northwest  Level Estimated
05:11AM 25.6065 -91.9485 326° Northwest  Level Estimated
05:12AM 25.7115 -92.0262 326° Northwest  Level Estimated
05:13AM 25.8165 -92.1040 326° Northwest  Level Estimated
05:14AM 25.9215 -92.1819 326° Northwest  Level Estimated
05:15AM 26.0264 -92.2599 326° Northwest  Level Estimated
05:16AM 26.1313 -92.3381 326° Northwest  Level Estimated
05:17AM 26.2362 -92.4165 326° Northwest  Level Estimated
05:18AM 26.3405 -92.4947 326° Northwest  Level Estimated
05:19AM 26.4457 -92.5736 326° Northwest  Level Estimated
05:19AM 26.7411 -91.9622 326° Northwest 434 499 38,000  Level Houston Center
05:20AM 26.5508 -92.6526 326° Northwest  Level Estimated
05:20AM 26.8539 -92.0681 320° Northwest 438 504 38,000  Level Houston Center
05:21AM 26.6533 -92.7299 326° Northwest  Level Estimated
05:21AM 26.9494 -92.1522 322° Northwest 438 504 38,000  Level Houston Center
05:22AM 26.7557 -92.8072 326° Northwest  Level Estimated
05:22AM 27.0447 -92.2364 322° Northwest 437 503 38,000  Level Houston Center
05:23AM 26.8580 -92.8847 326° Northwest  Level Estimated
05:23AM 27.1375 -92.3247 320° Northwest 436 502 37,900  Level Houston Center
05:24AM 26.9603 -92.9624 326° Northwest  Level Estimated
05:24AM 27.2311 -92.4208 318° Northwest 443 510 38,000  Level Houston Center
05:25AM 27.3264 -92.5061 322° Northwest 443 510 38,000  Level Houston Center
05:26AM 27.4231 -92.5900 322° Northwest 442 509 38,000 -60 Level Houston Center
05:27AM 27.5186 -92.6772 321° Northwest 442 509 37,900  Descending Houston Center
05:28AM 27.6136 -92.7589 323° Northwest 437 503 38,000  Climbing Houston Center
05:29AM 27.7089 -92.8436 322° Northwest 436 502 38,000 -60 Level Houston Center
05:30AM 27.8025 -92.9306 321° Northwest 435 501 37,900  Descending Houston Center
05:31AM 27.8969 -93.0150 322° Northwest 434 499 38,000  Climbing Houston Center
05:32AM 27.9892 -93.1056 319° Northwest 435 501 38,000  Level Houston Center
05:33AM 28.0831 -93.1986 319° Northwest 441 507 38,000  Level Houston Center
05:34AM 28.1764 -93.2794 323° Northwest 433 498 38,000  Level Houston Center
05:35AM 28.2708 -93.3681 320° Northwest 438 504 38,000  Level Houston Center
05:36AM 28.3650 -93.4558 321° Northwest 439 505 38,000  Level Houston Center
05:37AM 28.4586 -93.5431 321° Northwest 437 503 38,000 -420 Level Houston Center
05:38AM 28.5517 -93.6308 320° Northwest 436 502 37,200 -1,200 Descending Houston Center
05:39AM 28.6467 -93.7189 321° Northwest 439 505 35,700 -1,800 Descending Houston Center
05:40AM 28.7422 -93.8083 321° Northwest 444 511 33,600 -1,920 Descending Houston Center
05:41AM 28.8392 -93.9025 320° Northwest 456 525 31,900 -1,380 Descending Houston Center
05:42AM 28.9386 -93.9947 321° Northwest 460 529 30,900 -900 Descending Houston Center
05:43AM 29.0375 -94.0897 320° Northwest 466 536 30,100 -2,520 Descending Houston Center
05:44AM 29.1361 -94.1847 320° Northwest 464 534 25,900 -3,780 Descending Houston Center
05:45AM 29.2358 -94.2786 321° Northwest 466 536 22,600 -3,300 Descending Houston Center
05:46AM 29.3300 -94.3753 318° Northwest 458 527 19,300 -3,240 Descending Houston Center
05:47AM 29.4153 -94.4764 314° West 445 512 16,100 -3,000 Descending Houston Center
05:48AM 29.4956 -94.5700 315° West 420 483 13,300 -2,640 Descending Houston Center
05:49AM 29.5742 -94.6608 315° West 404 465 10,900 -1,740 Descending Houston Center
05:50AM 29.6450 -94.7453 314° West 374 430 9,900 -540 Descending Houston Center
05:51AM 29.7181 -94.8292 315° West 376 433 9,900 -900 Level Houston Center
05:52AM 29.7750 -94.8975 314° West 309 356 8,100 -1,980 Descending Houston Center
05:53AM 29.8300 -94.9614 315° West 286 329 6,000 -1,800 Descending Houston Center
05:54AM 29.8769 -95.0303 308° West 282 325 4,500 -1,020 Descending Houston Center
05:55AM 29.9122 -95.0989 301° West 253 291 4,000 -900 Descending Houston Center
05:56AM 29.9450 -95.1589 302° West 227 261 2,800 -1,200 Descending Houston Center